createdAt,value
2018-07-06T00:01:46.126Z,8.03
2018-07-06T00:04:32.904Z,6.97
2018-07-06T00:07:19.472Z,9.17
2018-07-06T00:10:06.078Z,6.60
2018-07-06T00:12:52.685Z,5.67
2018-07-06T00:15:39.697Z,5.73
2018-07-06T00:18:26.304Z,5.80
2018-07-06T00:21:12.842Z,5.27
2018-07-06T00:23:59.451Z,5.80
2018-07-06T00:26:46.056Z,5.53
2018-07-06T00:29:32.750Z,5.97
2018-07-06T00:32:19.268Z,5.80
2018-07-06T00:35:06.071Z,5.47
2018-07-06T00:37:52.578Z,5.23
2018-07-06T00:40:38.926Z,5.10
2018-07-06T00:43:25.418Z,5.63
2018-07-06T00:46:11.953Z,5.43
2018-07-06T00:48:59.461Z,5.30
2018-07-06T00:51:45.878Z,5.50
2018-07-06T00:54:32.498Z,5.90
2018-07-06T00:57:18.974Z,5.20
2018-07-06T01:00:05.389Z,5.60
2018-07-06T01:02:52.110Z,4.80
2018-07-06T01:05:38.838Z,5.23
2018-07-06T01:08:25.663Z,5.50
2018-07-06T01:11:12.326Z,5.63
2018-07-06T01:13:58.861Z,5.57
2018-07-06T01:16:45.336Z,5.37
2018-07-06T01:19:31.765Z,5.23
2018-07-06T01:22:18.533Z,5.90
2018-07-06T01:25:05.804Z,5.13
2018-07-06T01:27:52.496Z,5.90
2018-07-06T01:30:39.176Z,5.50
2018-07-06T01:33:25.836Z,4.90
2018-07-06T01:36:12.399Z,5.00
2018-07-06T01:38:58.938Z,5.30
2018-07-06T01:41:45.606Z,5.60
2018-07-06T01:44:32.556Z,4.93
2018-07-06T01:47:19.213Z,5.10
2018-07-06T01:50:05.979Z,4.60
2018-07-06T01:52:52.756Z,5.10
2018-07-06T01:55:39.263Z,5.10
2018-07-06T01:58:26.058Z,5.50
2018-07-06T02:01:12.638Z,4.70
2018-07-06T02:03:59.459Z,5.30
2018-07-06T02:06:45.960Z,4.70
2018-07-06T02:09:32.571Z,4.60
2018-07-06T02:12:19.232Z,3.90
2018-07-06T02:15:05.895Z,4.40
2018-07-06T02:17:52.582Z,4.13
2018-07-06T02:20:39.165Z,4.17
2018-07-06T02:23:25.642Z,5.17
2018-07-06T02:26:12.329Z,5.23
2018-07-06T02:28:58.909Z,4.20
2018-07-06T02:31:45.564Z,5.30
2018-07-06T02:34:32.363Z,4.80
2018-07-06T02:37:19.436Z,5.00
2018-07-06T02:40:05.986Z,5.07
2018-07-06T02:42:52.991Z,5.23
2018-07-06T02:45:40.215Z,5.07
2018-07-06T02:48:26.981Z,5.17
2018-07-06T02:51:13.604Z,5.50
2018-07-06T02:54:00.108Z,6.00
2018-07-06T02:56:46.625Z,5.80
2018-07-06T02:59:33.364Z,5.73
2018-07-06T03:02:20.006Z,6.20
2018-07-06T03:05:06.592Z,5.70
2018-07-06T03:07:53.171Z,5.97
2018-07-06T03:10:40.081Z,5.90
2018-07-06T03:13:26.770Z,5.60
2018-07-06T03:16:13.519Z,5.33
2018-07-06T03:19:00.115Z,6.13
2018-07-06T03:21:46.737Z,6.20
2018-07-06T03:24:33.334Z,6.00
2018-07-06T03:27:20.214Z,6.47
2018-07-06T03:30:06.837Z,5.80
2018-07-06T03:32:54.381Z,6.60
2018-07-06T03:35:41.048Z,7.77
2018-07-06T03:38:27.823Z,8.27
2018-07-06T03:41:14.441Z,6.37
2018-07-06T03:44:03.036Z,7.00
2018-07-06T03:46:49.549Z,7.33
2018-07-06T03:49:36.152Z,6.83
2018-07-06T03:52:22.681Z,6.40
2018-07-06T03:55:10.599Z,6.53
2018-07-06T03:57:59.013Z,7.07
2018-07-06T04:00:45.881Z,7.43
2018-07-06T04:03:32.670Z,5.47
2018-07-06T04:06:19.464Z,6.33
2018-07-06T04:09:06.222Z,7.00
2018-07-06T04:11:52.723Z,5.77
2018-07-06T04:14:39.469Z,6.80
2018-07-06T04:17:26.204Z,6.70
2018-07-06T04:20:12.923Z,6.13
2018-07-06T04:23:00.572Z,6.87
2018-07-06T04:25:49.559Z,6.30
2018-07-06T04:28:36.610Z,7.20
2018-07-06T04:31:23.460Z,7.10
2018-07-06T04:34:04.394Z,7.10
2018-07-06T04:36:51.163Z,7.83
2018-07-06T04:39:39.004Z,7.93
2018-07-06T04:42:25.466Z,7.70
2018-07-06T04:45:11.922Z,9.17
2018-07-06T04:47:58.422Z,8.00
2018-07-06T04:50:45.319Z,8.27
2018-07-06T04:53:32.115Z,8.20
2018-07-06T04:56:18.940Z,14.33
2018-07-06T04:59:06.482Z,9.60
2018-07-06T05:01:53.110Z,9.27
2018-07-06T05:04:39.981Z,8.53
2018-07-06T05:07:26.576Z,8.43
2018-07-06T05:10:13.366Z,10.63
2018-07-06T05:13:01.418Z,9.87
2018-07-06T05:15:48.107Z,9.20
2018-07-06T05:18:34.717Z,10.40
2018-07-06T05:21:21.649Z,10.40
2018-07-06T05:24:08.414Z,13.23
2018-07-06T05:26:55.276Z,11.90
2018-07-06T05:29:42.287Z,11.10
2018-07-06T05:32:28.853Z,10.07
2018-07-06T05:35:15.561Z,9.30
2018-07-06T05:38:04.549Z,8.63
2018-07-06T05:40:51.524Z,11.00
2018-07-06T05:43:38.245Z,10.17
2018-07-06T05:46:25.234Z,11.83
2018-07-06T05:49:13.771Z,8.53
2018-07-06T05:52:00.650Z,9.70
2018-07-06T05:54:47.489Z,9.87
2018-07-06T05:57:34.277Z,8.70
2018-07-06T06:00:20.970Z,10.30
2018-07-06T06:03:07.600Z,8.73
2018-07-06T06:05:54.228Z,10.40
2018-07-06T06:08:28.916Z,9.30
2018-07-06T06:10:58.205Z,10.37
2018-07-06T06:13:28.145Z,8.40
2018-07-06T06:15:57.942Z,8.27
2018-07-06T06:18:27.766Z,8.27
2018-07-06T06:20:57.599Z,9.93
2018-07-06T06:23:27.562Z,8.70
2018-07-06T06:25:57.198Z,8.97
2018-07-06T06:28:26.975Z,8.90
2018-07-06T06:30:56.784Z,9.23
2018-07-06T06:33:27.026Z,9.97
2018-07-06T06:35:56.640Z,8.77
2018-07-06T06:38:26.029Z,7.40
2018-07-06T06:40:55.766Z,7.30
2018-07-06T06:43:25.547Z,8.37
2018-07-06T06:45:55.336Z,8.20
2018-07-06T06:48:25.216Z,7.20
2018-07-06T06:50:55.247Z,8.80
2018-07-06T06:53:24.931Z,8.00
2018-07-06T06:55:54.629Z,8.90
2018-07-06T06:58:24.662Z,9.93
2018-07-06T07:00:54.571Z,7.73
2018-07-06T07:03:25.763Z,7.97
2018-07-06T07:05:56.010Z,9.60
2018-07-06T07:08:26.239Z,8.50
2018-07-06T07:10:56.413Z,8.13
2018-07-06T07:13:26.008Z,7.90
2018-07-06T07:15:56.036Z,6.80
2018-07-06T07:18:25.993Z,7.20
2018-07-06T07:20:56.938Z,6.77
2018-07-06T07:23:27.270Z,5.67
2018-07-06T07:25:57.485Z,6.00
2018-07-06T07:28:28.632Z,5.90
2018-07-06T07:30:58.328Z,5.23
2018-07-06T07:33:28.342Z,6.97
2018-07-06T07:35:59.302Z,6.27
2018-07-06T07:38:29.216Z,6.57
2018-07-06T07:40:58.968Z,7.10
2018-07-06T07:43:29.918Z,6.43
2018-07-06T07:45:59.364Z,6.27
2018-07-06T07:48:29.182Z,5.83
2018-07-06T07:51:09.861Z,5.87
2018-07-06T07:53:50.812Z,5.47
2018-07-06T07:56:21.759Z,7.60
2018-07-06T07:58:51.975Z,6.23
2018-07-06T08:01:22.182Z,6.33
2018-07-06T08:03:51.975Z,6.37
2018-07-06T08:06:27.804Z,6.23
2018-07-06T08:08:57.763Z,7.50
2018-07-06T08:11:27.640Z,6.50
2018-07-06T08:13:57.510Z,7.10
2018-07-06T08:16:27.429Z,7.63
2018-07-06T08:18:57.360Z,7.93
2018-07-06T08:21:27.422Z,7.30
2018-07-06T08:23:57.214Z,8.10
2018-07-06T08:26:27.188Z,7.40
2018-07-06T08:28:56.934Z,7.97
2018-07-06T08:31:26.611Z,7.77
2018-07-06T08:34:07.369Z,7.50
2018-07-06T08:37:46.968Z,6.10
2018-07-06T08:40:17.330Z,8.30
2018-07-06T08:42:49.393Z,7.83
2018-07-06T08:45:19.264Z,7.50
2018-07-06T08:47:49.544Z,9.33
2018-07-06T08:50:18.845Z,7.77
2018-07-06T08:52:50.011Z,6.67
2018-07-06T08:55:20.470Z,7.70
2018-07-06T08:57:52.793Z,6.40
2018-07-06T09:00:22.709Z,5.83
2018-07-06T09:02:52.654Z,5.70
2018-07-06T09:05:22.632Z,6.50
2018-07-06T09:07:52.511Z,6.63
2018-07-06T09:10:22.248Z,8.10
2018-07-06T09:12:52.122Z,7.47
2018-07-06T09:15:21.774Z,8.03
2018-07-06T09:17:51.694Z,8.07
2018-07-06T09:20:21.662Z,10.07
2018-07-06T09:22:51.651Z,8.90
2018-07-06T09:25:21.833Z,10.47
2018-07-06T09:27:51.579Z,9.73
2018-07-06T09:30:21.448Z,9.70
2018-07-06T09:32:51.299Z,10.77
2018-07-06T09:35:20.964Z,11.03
2018-07-06T09:37:50.812Z,10.83
2018-07-06T09:40:20.749Z,12.37
2018-07-06T09:42:50.350Z,13.33
2018-07-06T09:45:20.350Z,12.20
2018-07-06T09:47:50.091Z,13.20
2018-07-06T09:50:19.797Z,13.00
2018-07-06T09:52:49.594Z,14.43
2018-07-06T09:55:19.234Z,15.33
2018-07-06T09:57:49.020Z,15.37
2018-07-06T10:00:24.759Z,14.93
2018-07-06T10:02:54.749Z,15.13
2018-07-06T10:05:24.862Z,15.43
2018-07-06T10:07:54.746Z,16.10
2018-07-06T10:10:24.601Z,16.93
2018-07-06T10:12:54.891Z,18.10
2018-07-06T10:15:24.532Z,19.33
2018-07-06T10:17:54.319Z,18.63
2018-07-06T10:20:24.162Z,19.43
2018-07-06T10:22:54.030Z,17.97
2018-07-06T10:25:24.106Z,18.80
2018-07-06T10:28:06.952Z,21.20
2018-07-06T10:30:53.136Z,19.17
2018-07-06T10:33:22.854Z,20.57
2018-07-06T10:35:52.550Z,19.23
2018-07-06T10:38:23.300Z,21.43
2018-07-06T10:40:53.310Z,23.00
2018-07-06T10:43:23.197Z,22.47
2018-07-06T10:45:52.925Z,23.43
2018-07-06T10:48:22.493Z,23.33
2018-07-06T10:50:52.226Z,23.47
2018-07-06T10:53:22.135Z,22.93
2018-07-06T10:55:51.959Z,24.10
2018-07-06T10:58:21.866Z,24.33
2018-07-06T11:00:51.953Z,23.97
2018-07-06T11:03:22.035Z,21.00
2018-07-06T11:05:52.071Z,21.97
2018-07-06T11:08:23.030Z,21.57
2018-07-06T11:10:53.787Z,19.93
2018-07-06T11:13:23.674Z,21.90
2018-07-06T11:15:53.674Z,23.17
2018-07-06T11:18:23.753Z,21.67
2018-07-06T11:20:53.728Z,21.10
2018-07-06T11:23:23.592Z,19.57
2018-07-06T11:25:53.655Z,19.33
2018-07-06T11:28:23.723Z,21.80
2018-07-06T11:30:53.377Z,18.50
2018-07-06T11:33:23.219Z,17.97
2018-07-06T11:35:53.138Z,18.17
2018-07-06T11:38:23.117Z,15.67
2018-07-06T11:40:53.189Z,14.33
2018-07-06T11:43:23.176Z,13.20
2018-07-06T11:45:53.010Z,11.50
2018-07-06T11:48:22.752Z,11.80
2018-07-06T11:50:52.461Z,13.23
2018-07-06T11:53:22.539Z,13.40
2018-07-06T11:55:52.464Z,12.70
2018-07-06T11:58:22.678Z,14.17
2018-07-06T12:00:52.666Z,12.80
2018-07-06T12:03:26.134Z,13.47
2018-07-06T12:05:56.229Z,12.70
2018-07-06T12:08:26.271Z,12.63
2018-07-06T12:10:56.141Z,12.00
2018-07-06T12:13:26.493Z,12.67
2018-07-06T12:15:56.302Z,12.20
2018-07-06T12:18:25.899Z,13.47
2018-07-06T12:20:56.741Z,13.43
2018-07-06T12:23:27.812Z,12.90
2018-07-06T12:25:57.520Z,14.33
2018-07-06T12:28:29.982Z,13.50
2018-07-06T12:31:00.015Z,15.37
2018-07-06T12:33:33.277Z,14.80
2018-07-06T12:36:05.642Z,16.07
2018-07-06T12:38:36.089Z,15.10
2018-07-06T12:41:07.670Z,15.80
2018-07-06T12:43:37.973Z,17.00
2018-07-06T12:46:08.312Z,14.80
2018-07-06T12:48:38.988Z,17.57
2018-07-06T12:51:10.176Z,17.07
2018-07-06T12:53:41.530Z,14.97
2018-07-06T12:56:11.710Z,16.67
2018-07-06T12:58:41.860Z,17.13
2018-07-06T13:01:11.891Z,15.70
2018-07-06T13:03:42.843Z,16.07
2018-07-06T13:06:13.238Z,16.43
2018-07-06T13:08:44.610Z,15.83
2018-07-06T13:11:15.224Z,15.37
2018-07-06T13:13:48.936Z,15.50
2018-07-06T13:16:21.447Z,16.97
2018-07-06T13:18:51.517Z,15.60
2018-07-06T13:21:21.889Z,15.57
2018-07-06T13:23:53.833Z,14.90
2018-07-06T13:26:23.824Z,14.20
2018-07-06T13:28:53.874Z,15.30
2018-07-06T13:31:25.013Z,14.60
2018-07-06T13:33:55.394Z,14.10
2018-07-06T13:36:25.657Z,14.80
2018-07-06T13:38:56.787Z,13.00
2018-07-06T13:41:26.661Z,12.80
2018-07-06T13:43:57.503Z,13.80
2018-07-06T13:46:27.410Z,13.10
2018-07-06T13:48:57.424Z,14.33
2018-07-06T13:51:27.267Z,14.60
2018-07-06T13:53:58.411Z,15.17
2018-07-06T13:56:28.144Z,16.40
2018-07-06T13:58:57.829Z,15.43
2018-07-06T14:01:27.680Z,14.37
2018-07-06T14:03:57.402Z,14.20
2018-07-06T14:06:27.368Z,16.30
2018-07-06T14:08:56.930Z,14.40
2018-07-06T14:11:26.843Z,15.23
2018-07-06T14:13:57.133Z,14.47
2018-07-06T14:16:26.964Z,14.20
2018-07-06T14:18:56.621Z,15.17
2018-07-06T14:21:26.451Z,17.10
2018-07-06T14:23:57.198Z,15.73
2018-07-06T14:26:27.094Z,15.87
2018-07-06T14:28:56.819Z,14.67
2018-07-06T14:31:27.807Z,15.57
2018-07-06T14:33:57.688Z,13.60
2018-07-06T14:36:27.633Z,13.17
2018-07-06T14:38:58.804Z,14.73
2018-07-06T14:41:28.643Z,14.83
2018-07-06T14:43:59.969Z,13.47
2018-07-06T14:46:29.905Z,13.07
2018-07-06T14:49:00.000Z,13.07
2018-07-06T14:51:30.949Z,14.03
2018-07-06T14:54:00.678Z,14.37
2018-07-06T14:56:32.661Z,15.23
2018-07-06T14:59:02.672Z,16.77
2018-07-06T15:01:32.459Z,15.07
2018-07-06T15:04:02.305Z,14.00
2018-07-06T15:06:32.282Z,14.40
2018-07-06T15:09:02.323Z,17.40
2018-07-06T15:11:32.118Z,16.50
2018-07-06T15:14:04.329Z,14.83
2018-07-06T15:16:34.204Z,13.57
2018-07-06T15:19:04.027Z,16.10
2018-07-06T15:21:33.741Z,15.07
2018-07-06T15:24:04.567Z,15.50
2018-07-06T15:26:36.472Z,16.57
2018-07-06T15:29:07.514Z,13.90
2018-07-06T15:31:37.475Z,13.57
2018-07-06T15:34:07.157Z,13.80
2018-07-06T15:36:37.519Z,15.17
2018-07-06T15:39:09.141Z,13.50
2018-07-06T15:41:39.700Z,13.83
2018-07-06T15:44:09.228Z,14.43
2018-07-06T15:46:38.853Z,15.70
2018-07-06T15:49:08.639Z,14.10
2018-07-06T15:51:40.163Z,14.50
2018-07-06T15:54:10.072Z,16.03
2018-07-06T15:56:39.937Z,16.30
2018-07-06T15:59:09.723Z,13.57
2018-07-06T16:01:39.473Z,14.77
2018-07-06T16:04:09.291Z,15.27
2018-07-06T16:06:39.962Z,16.13
2018-07-06T16:09:09.806Z,16.00
2018-07-06T16:11:39.572Z,14.80
2018-07-06T16:14:09.420Z,16.57
2018-07-06T16:16:39.165Z,16.77
2018-07-06T16:19:09.247Z,16.40
2018-07-06T16:21:40.060Z,16.77
2018-07-06T16:24:09.788Z,14.97
2018-07-06T16:26:39.776Z,9.30
2018-07-06T16:29:15.122Z,9.40
2018-07-06T16:31:44.715Z,6.90
2018-07-06T16:34:14.912Z,6.33
2018-07-06T16:36:44.781Z,6.97
2018-07-06T16:39:14.593Z,7.10
2018-07-06T16:41:44.410Z,6.90
2018-07-06T16:44:15.342Z,6.37
2018-07-06T16:46:45.227Z,7.20
2018-07-06T16:49:14.938Z,8.03
2018-07-06T16:51:44.616Z,7.63
2018-07-06T16:54:14.501Z,7.50
2018-07-06T16:56:45.508Z,8.90
2018-07-06T16:59:15.319Z,7.57
2018-07-06T17:01:45.269Z,7.97
2018-07-06T17:04:15.112Z,8.53
2018-07-06T17:06:45.011Z,9.67
2018-07-06T17:09:15.069Z,9.47
2018-07-06T17:11:44.875Z,10.90
2018-07-06T17:14:14.695Z,11.43
2018-07-06T17:16:44.755Z,11.30
2018-07-06T17:19:14.890Z,13.53
2018-07-06T17:21:45.230Z,14.17
2018-07-06T17:24:15.433Z,13.50
2018-07-06T17:26:45.132Z,18.23
2018-07-06T17:29:14.970Z,13.50
2018-07-06T17:31:45.755Z,12.53
2018-07-06T17:34:15.557Z,14.23
2018-07-06T17:36:45.518Z,12.40
2018-07-06T17:39:15.517Z,12.97
2018-07-06T17:41:45.306Z,13.20
2018-07-06T17:44:15.323Z,12.80
2018-07-06T17:46:45.145Z,13.63
2018-07-06T17:49:16.184Z,13.77
2018-07-06T17:51:45.948Z,14.07
2018-07-06T17:54:15.873Z,14.83
2018-07-06T17:56:45.990Z,13.20
2018-07-06T17:59:16.763Z,13.53
2018-07-06T18:01:46.406Z,15.33
2018-07-06T18:04:16.153Z,14.20
2018-07-06T18:06:45.972Z,14.50
2018-07-06T18:09:16.669Z,12.60
2018-07-06T18:11:46.515Z,13.53
2018-07-06T18:14:16.303Z,12.37
2018-07-06T18:16:47.205Z,12.70
2018-07-06T18:19:17.124Z,13.53
2018-07-06T18:21:46.978Z,13.10
2018-07-06T18:24:16.270Z,13.57
2018-07-06T18:26:46.193Z,13.23
2018-07-06T18:29:15.972Z,12.20
2018-07-06T18:31:51.709Z,12.33
2018-07-06T18:34:22.562Z,10.63
2018-07-06T18:36:54.391Z,11.90
2018-07-06T18:39:24.203Z,12.37
2018-07-06T18:41:53.813Z,11.13
2018-07-06T18:44:23.585Z,11.40
2018-07-06T18:46:53.255Z,12.23
2018-07-06T18:49:23.144Z,13.60
2018-07-06T18:51:52.850Z,10.97
2018-07-06T18:54:22.609Z,11.20
2018-07-06T18:56:54.356Z,11.17
2018-07-06T18:59:24.199Z,11.40
2018-07-06T19:01:54.012Z,11.33
2018-07-06T19:04:23.865Z,10.37
2018-07-06T19:06:53.619Z,10.37
2018-07-06T19:09:23.629Z,10.07
2018-07-06T19:12:01.206Z,9.67
2018-07-06T19:14:31.344Z,9.20
2018-07-06T19:17:01.825Z,9.67
2018-07-06T19:19:31.456Z,9.63
2018-07-06T19:22:02.901Z,9.33
2018-07-06T19:24:32.703Z,10.00
2018-07-06T19:27:02.520Z,9.60
2018-07-06T19:29:32.344Z,8.53
2018-07-06T19:32:03.392Z,10.10
2018-07-06T19:34:33.061Z,10.47
2018-07-06T19:37:02.802Z,10.07
2018-07-06T19:39:33.005Z,8.97
2018-07-06T19:42:02.647Z,8.67
2018-07-06T19:44:32.344Z,9.37
2018-07-06T19:47:03.597Z,9.70
2018-07-06T19:49:33.556Z,9.20
2018-07-06T19:52:03.389Z,8.63
2018-07-06T19:54:33.015Z,9.30
2018-07-06T19:57:03.092Z,10.23
2018-07-06T19:59:32.958Z,10.00
2018-07-06T20:02:03.933Z,10.33
2018-07-06T20:04:33.631Z,10.63
2018-07-06T20:07:03.546Z,10.43
2018-07-06T20:09:33.377Z,9.60
2018-07-06T20:12:02.910Z,8.20
2018-07-06T20:14:32.559Z,8.30
2018-07-06T20:17:02.785Z,10.20
2018-07-06T20:19:32.631Z,9.00
2018-07-06T20:22:02.504Z,8.60
2018-07-06T20:24:32.292Z,8.60
2018-07-06T20:27:05.011Z,8.20
2018-07-06T20:29:34.650Z,8.87
2018-07-06T20:32:04.303Z,8.60
2018-07-06T20:34:34.115Z,8.53
2018-07-06T20:37:03.795Z,9.13
2018-07-06T20:39:33.646Z,8.13
2018-07-06T20:42:03.288Z,8.17
2018-07-06T20:44:33.427Z,8.70
2018-07-06T20:47:03.198Z,7.57
2018-07-06T20:49:32.849Z,8.70
2018-07-06T20:52:02.443Z,8.17
2018-07-06T20:54:32.051Z,9.03
2018-07-06T20:57:01.704Z,9.00
2018-07-06T20:59:31.323Z,11.70
2018-07-06T21:02:03.219Z,11.40
2018-07-06T21:04:32.786Z,11.33
2018-07-06T21:07:04.251Z,11.73
2018-07-06T21:09:33.802Z,13.67
2018-07-06T21:12:05.331Z,14.50
2018-07-06T21:14:35.108Z,15.90
2018-07-06T21:17:06.028Z,15.50
2018-07-06T21:19:35.567Z,13.70
2018-07-06T21:22:06.415Z,16.30
2018-07-06T21:24:36.116Z,15.60
2018-07-06T21:27:07.402Z,16.93
2018-07-06T21:29:37.127Z,17.37
2018-07-06T21:32:06.766Z,16.57
2018-07-06T21:34:36.379Z,17.20
2018-07-06T21:37:06.005Z,16.53
2018-07-06T21:39:36.767Z,17.00
2018-07-06T21:42:06.418Z,15.17
2018-07-06T21:44:36.190Z,16.33
2018-07-06T21:47:05.923Z,17.50
2018-07-06T21:49:35.707Z,18.00
2018-07-06T21:52:05.363Z,17.30
2018-07-06T21:54:35.029Z,16.07
2018-07-06T21:57:04.666Z,17.60
2018-07-06T21:59:34.450Z,17.00
2018-07-06T22:02:09.078Z,17.57
2018-07-06T22:04:39.568Z,16.50
2018-07-06T22:07:09.257Z,15.70
2018-07-06T22:09:39.046Z,15.70
2018-07-06T22:12:08.724Z,16.90
2018-07-06T22:14:38.571Z,17.50
2018-07-06T22:17:08.766Z,17.40
2018-07-06T22:19:38.410Z,16.17
2018-07-06T22:22:09.118Z,17.50
2018-07-06T22:24:38.858Z,18.53
2018-07-06T22:27:08.556Z,17.63
2018-07-06T22:29:38.230Z,17.87
2018-07-06T22:32:07.897Z,16.67
2018-07-06T22:34:37.557Z,15.57
2018-07-06T22:37:07.249Z,16.13
2018-07-06T22:39:36.964Z,16.83
2018-07-06T22:42:06.529Z,16.90
2018-07-06T22:44:36.585Z,16.90
2018-07-06T22:47:07.540Z,16.97
2018-07-06T22:49:37.992Z,16.80
2018-07-06T22:52:07.673Z,15.67
2018-07-06T22:54:37.386Z,16.80
2018-07-06T22:57:07.195Z,17.60
2018-07-06T22:59:36.884Z,16.57
2018-07-06T23:02:07.047Z,16.43
2018-07-06T23:04:36.353Z,15.70
2018-07-06T23:07:06.988Z,17.50
2018-07-06T23:09:36.804Z,15.20
2018-07-06T23:12:06.481Z,15.07
2018-07-06T23:14:37.054Z,15.83
2018-07-06T23:17:06.758Z,14.93
2018-07-06T23:19:36.403Z,14.40
2018-07-06T23:22:06.505Z,15.40
2018-07-06T23:24:36.124Z,15.30
2018-07-06T23:27:06.153Z,13.17
2018-07-06T23:29:35.805Z,13.07
2018-07-06T23:32:06.907Z,12.70
2018-07-06T23:34:37.654Z,12.40
2018-07-06T23:37:07.319Z,12.60
2018-07-06T23:39:36.992Z,12.63
2018-07-06T23:42:06.703Z,11.17
2018-07-06T23:44:37.051Z,12.13
2018-07-06T23:47:07.308Z,11.40
2018-07-06T23:49:38.667Z,11.20
2018-07-06T23:52:08.090Z,10.63
2018-07-06T23:54:37.749Z,10.87
2018-07-06T23:57:07.376Z,10.30
2018-07-06T23:59:36.879Z,10.07
